Date,TemperatureHighF,TemperatureAvgF,TemperatureLowF,DewpointHighF,DewpointAvgF,DewpointLowF,HumidityHigh,HumidityAvg,HumidityLow,PressureMaxIn,PressureMinIn,WindSpeedMaxMPH,WindSpeedAvgMPH,GustSpeedMaxMPH,PrecipitationSumIn
2013-1-1,82.6,73.2,66.7,59.1,55.3,52.9,73,54,39,30.11,29.96,14,1,14,0.00
2013-1-2,86.2,72.8,62.2,66.8,59.0,53.3,83,64,36,30.01,29.90,6,0,6,0.00
2013-1-3,81.1,72.6,67.6,99.9,68.3,62.6,100,81,58,30.03,29.94,114,13,114,0.06
2013-1-5,157.6,0.0,157.6,99.9,99.9,99.9,100,100,100,30.13,30.10,114,114,114,0.00
2013-1-6,157.6,0.0,157.6,99.9,99.9,99.9,100,100,100,30.10,29.97,114,114,114,0.00
2013-1-7,157.6,23.4,70.2,99.9,89.3,-26.4,100,93,61,30.07,29.98,114,80,114,0.00
2013-1-8,86.2,76.1,69.3,73.0,67.4,65.4,91,76,54,30.11,29.98,0,0,0,0.00
2013-1-9,83.8,78.0,74.3,68.0,66.2,63.8,77,68,54,30.19,30.07,114,2,114,0.00
2013-1-10,82.8,76.7,72.9,65.9,61.6,56.9,72,60,42,30.21,30.09,18,2,18,0.00
2013-1-11,83.3,76.0,71.1,65.8,62.8,60.8,77,64,52,30.17,30.06,12,1,12,0.00
2013-1-12,83.5,74.9,68.2,66.5,62.9,59.9,80,67,48,30.09,30.00,13,1,13,0.00
2013-1-13,85.6,75.2,68.0,65.3,60.5,54.9,81,62,40,30.04,29.98,15,1,15,0.00
2013-1-14,83.5,73.5,65.5,63.4,58.8,55.0,81,61,42,30.08,30.02,14,1,14,0.00
2013-1-15,69.3,68.8,67.8,62.1,61.9,59.8,79,79,74,30.05,30.01,0,0,0,0.00
2013-1-16,68.9,68.9,68.9,62.1,62.1,62.1,79,79,79,30.01,30.01,0,0,0,0.00
2013-1-17,68.9,67.6,60.6,62.1,59.9,50.8,79,77,66,30.01,29.97,12,0,12,0.02
2013-1-18,72.0,64.1,54.3,54.6,48.3,42.7,70,57,44,30.15,30.01,13,1,13,0.02
2013-1-19,72.0,68.9,65.1,65.6,60.3,51.8,89,75,53,30.14,30.01,10,0,10,0.20
2013-1-20,82.6,71.4,64.2,77.6,64.2,59.0,96,80,49,30.06,29.92,7,0,7,0.14
2013-1-21,83.7,72.9,66.0,70.0,64.3,61.0,90,75,55,29.98,29.88,8,0,8,0.33
2013-1-22,77.5,68.9,62.6,61.8,54.7,49.4,85,62,41,30.13,29.93,14,0,14,0.02
2013-1-23,75.6,67.2,60.4,53.4,50.1,45.5,70,55,35,30.21,30.11,14,1,14,0.00
2013-1-24,76.5,61.9,57.7,52.2,49.8,43.1,78,66,34,30.20,30.11,5,0,9,0.00
2013-1-25,78.3,66.4,56.8,53.5,50.2,47.2,74,58,37,30.20,30.09,6,1,10,0.00
2013-1-26,79.2,67.5,58.5,57.0,53.4,49.4,84,63,37,30.17,30.07,3,0,9,0.00
2013-1-27,79.5,70.6,61.7,59.1,56.2,52.3,82,62,41,30.19,30.11,4,1,13,0.00
2013-1-28,82.2,75.0,70.2,60.8,58.4,54.3,67,57,42,30.22,30.14,8,2,14,0.00
2013-1-29,82.8,74.2,68.9,66.8,61.1,58.8,78,64,47,30.14,30.04,12,2,16,0.00
2013-1-30,84.2,75.3,70.3,64.6,60.6,57.2,79,61,44,30.04,29.88,114,2,114,0.00
2013-1-31,72.5,67.4,59.2,69.2,55.7,36.0,90,68,41,30.10,29.86,14,1,14,0.00
2013-2-1,74.1,62.6,52.7,48.9,42.6,32.8,60,48,38,30.19,30.08,13,1,14,0.00
2013-2-2,75.4,64.1,54.5,51.3,43.6,-41.4,75,49,33,30.17,30.02,12,1,12,0.00
2013-2-3,75.6,63.8,55.9,52.1,43.8,28.2,83,53,19,30.09,29.98,10,0,10,0.00
2013-2-4,77.9,62.7,50.9,51.1,43.4,0.0,73,52,23,30.06,29.93,9,0,9,0.00
2013-2-5,81.0,67.2,54.3,58.5,53.3,0.0,84,64,38,30.00,29.91,9,0,9,0.00
2013-2-6,83.5,70.4,60.8,62.9,58.1,55.7,86,67,44,30.02,29.93,8,0,8,0.00
2013-2-7,84.9,73.2,63.0,64.7,59.0,40.5,84,63,39,29.99,29.85,10,1,10,0.00
2013-2-8,86.2,75.3,69.1,68.4,63.6,56.4,87,68,45,29.95,29.83,10,0,10,0.00
2013-2-9,83.7,71.6,63.5,65.6,58.4,52.8,87,64,44,30.09,29.93,114,2,114,0.00
2013-2-10,76.6,71.7,67.6,62.5,57.1,51.9,73,60,52,30.18,30.06,16,2,114,0.00
2013-2-11,81.5,72.9,65.7,61.6,59.0,56.1,78,63,48,30.13,30.02,16,2,16,0.00
2013-2-12,90.1,74.9,63.7,67.0,61.0,54.9,87,65,32,30.03,29.88,10,1,13,0.00
2013-2-13,90.9,78.3,69.4,70.6,64.8,61.0,88,66,38,29.92,29.81,9,1,114,0.00
2013-2-14,84.2,72.7,63.5,68.7,64.4,58.6,87,76,55,29.93,29.76,20,1,20,0.26
2013-2-15,73.2,67.6,64.0,66.2,62.8,59.1,96,85,71,29.93,29.86,8,0,8,0.45
2013-2-16,76.6,66.6,55.8,63.4,53.0,39.8,91,66,30,30.00,29.79,0,0,0,0.02
2013-2-17,59.7,52.7,45.1,41.8,22.9,6.1,59,34,19,30.22,29.99,0,0,0,0.00
2013-2-18,67.5,52.5,47.3,51.2,36.1,28.1,57,53,47,30.22,30.11,0,0,0,0.00
2013-2-19,81.3,71.3,59.2,63.7,56.2,48.4,81,60,45,30.11,29.99,0,0,0,0.00
2013-2-20,82.6,71.7,65.3,65.1,60.3,51.4,90,69,36,30.03,29.92,0,0,0,0.00
2013-2-21,84.7,73.6,65.1,67.4,61.3,58.5,88,67,43,30.00,29.90,0,0,0,0.00
2013-2-22,85.8,76.6,70.5,68.3,65.4,62.4,84,69,50,30.01,29.93,0,0,0,0.00
2013-2-23,90.3,79.0,72.7,67.5,65.6,61.3,80,65,40,29.96,29.83,0,0,0,0.00
2013-2-24,92.8,79.9,71.8,71.6,65.1,55.3,87,64,29,29.91,29.81,0,0,0,0.00
2013-2-25,88.2,77.4,69.3,71.5,65.6,62.2,83,68,46,29.83,29.72,0,0,0,0.00
2013-2-26,90.0,80.4,74.1,70.1,65.7,0.0,80,63,41,29.81,29.71,0,0,0,0.00
2013-2-27,78.1,72.5,66.9,69.8,62.5,54.5,86,72,46,29.88,29.77,0,0,0,0.12
2013-2-28,71.2,65.8,61.0,62.6,51.0,43.5,86,61,40,29.92,29.82,0,0,0,0.08
2013-3-1,67.5,62.9,58.1,53.2,47.1,-34.4,74,57,46,29.91,29.81,0,0,0,0.00
2013-3-2,68.2,58.9,53.4,43.5,37.0,29.6,59,45,29,29.95,29.86,0,0,0,0.00
2013-3-3,64.0,56.0,50.7,44.7,37.9,33.1,74,52,33,30.06,29.88,0,0,0,0.02
2013-3-4,70.9,55.4,43.0,38.2,31.5,23.5,66,44,19,30.13,30.03,0,0,0,0.02
2013-3-5,78.6,63.9,49.6,52.8,47.2,36.6,80,57,34,30.09,29.99,0,0,0,0.00
2013-3-6,80.1,66.1,53.1,62.0,45.9,17.9,85,53,19,30.02,29.86,0,0,0,0.00
2013-3-7,73.4,60.1,48.4,50.0,38.5,31.1,75,47,27,30.10,29.98,0,0,0,0.00
2013-3-8,77.5,64.3,52.7,51.1,44.5,31.5,82,54,19,30.11,30.01,0,0,0,0.00
2013-3-9,78.8,65.4,54.3,53.6,48.1,45.3,80,56,34,30.10,30.01,18,1,18,0.04
2013-3-10,76.6,68.3,63.5,51.4,48.8,46.1,60,50,36,30.07,29.98,13,1,13,0.04
2013-3-11,79.2,73.0,68.4,57.2,54.9,51.5,63,54,39,30.02,29.87,7,2,114,0.00
2013-3-12,85.6,75.5,68.2,63.1,60.3,-31.4,75,60,44,29.92,29.82,8,1,114,0.00
2013-3-13,78.3,67.6,58.1,61.8,48.1,33.1,80,53,24,30.04,29.89,14,1,14,0.00
2013-3-14,74.8,62.5,54.3,49.3,40.0,27.6,77,48,19,30.12,30.01,15,1,15,0.00
2013-3-15,75.2,63.4,52.9,49.3,43.2,39.4,67,50,28,30.17,30.06,11,1,11,0.00
2013-3-16,81.0,66.4,53.8,56.2,48.0,44.2,82,55,32,30.11,30.00,10,1,10,0.00
2013-3-17,81.9,69.4,58.1,63.3,52.9,47.4,80,58,36,30.06,29.94,12,1,12,0.00
2013-3-18,85.3,73.0,64.6,64.6,60.9,54.2,82,67,46,29.99,29.88,15,1,15,0.02
2013-3-19,84.0,74.5,69.3,68.4,64.0,59.2,88,72,45,29.93,29.72,30,0,30,0.04
2013-3-20,91.8,75.0,64.6,67.7,59.2,49.2,86,61,32,29.90,29.72,15,1,15,0.02
2013-3-21,78.3,68.7,61.0,59.0,46.8,26.0,82,51,19,29.86,29.74,8,1,12,0.00
2013-3-22,79.2,69.4,57.4,65.2,55.1,46.2,79,62,41,29.92,29.81,12,2,12,0.00
2013-3-23,92.1,80.4,71.1,74.4,65.8,60.4,88,64,36,29.90,29.71,12,1,12,0.00
2013-3-24,93.4,82.1,74.7,76.4,66.6,60.2,86,62,37,29.81,29.61,20,2,20,0.00
2013-3-25,81.0,75.5,65.7,69.5,55.5,37.7,82,54,27,29.91,29.66,15,1,15,0.06
2013-3-26,69.6,61.8,52.5,39.2,30.7,23.5,48,32,19,30.13,29.90,16,3,16,0.04
2013-3-27,72.0,58.3,46.8,40.2,34.0,28.1,58,42,22,30.17,30.08,13,1,13,0.00
2013-3-28,76.6,62.2,51.4,43.0,38.2,29.0,67,44,19,30.18,30.07,11,1,11,0.00
2013-3-29,76.6,65.6,55.0,48.1,43.2,37.4,62,46,29,30.20,30.11,10,1,15,0.00
2013-3-30,79.5,67.9,56.3,55.5,46.7,40.2,78,49,27,30.17,30.07,15,2,15,0.00
2013-3-31,84.7,72.2,59.9,61.2,55.8,49.5,79,58,38,30.10,29.96,14,2,14,0.00
2013-4-1,90.0,77.4,69.3,72.2,61.7,53.9,84,61,33,29.97,29.86,14,1,14,0.00
2013-4-2,88.9,75.4,66.7,65.6,60.8,55.2,89,63,35,30.00,29.90,9,1,10,0.00
2013-4-3,88.0,77.7,68.5,70.7,62.7,56.4,83,62,40,29.98,29.90,13,2,13,0.00
2013-4-4,89.4,77.4,70.0,67.4,65.1,56.7,84,68,41,29.96,29.81,19,2,19,0.77
2013-4-5,74.3,69.8,66.9,67.4,63.7,60.8,87,81,70,29.90,29.73,11,0,11,0.04
2013-4-6,71.1,66.0,61.5,62.6,57.2,54.6,86,74,62,30.00,29.84,8,0,8,0.00
2013-4-7,81.5,73.3,69.3,60.9,58.0,54.0,72,59,42,30.06,29.93,12,2,12,0.00
2013-4-8,84.9,74.0,62.1,64.1,56.2,46.8,84,57,28,30.04,29.96,14,1,14,0.00
2013-4-9,85.6,75.9,67.1,65.3,60.8,-35.2,82,61,43,30.06,29.96,13,2,13,0.00
2013-4-10,88.2,79.0,71.4,70.0,65.1,61.3,76,63,47,30.02,29.90,15,3,15,0.00
2013-4-11,88.5,80.2,74.3,69.3,67.1,64.9,79,65,47,29.93,29.81,14,4,20,0.04
2013-4-12,91.0,81.3,74.5,74.5,69.5,64.8,78,68,49,29.86,29.77,18,1,18,0.57
2013-4-13,89.2,78.7,73.8,72.1,68.8,65.0,82,72,49,29.89,29.79,8,0,8,0.12
2013-4-14,91.6,81.2,72.7,75.7,68.7,65.0,90,68,43,29.88,29.80,16,2,16,0.04
2013-4-15,94.5,80.4,72.3,71.4,68.6,63.5,85,69,40,29.97,29.84,11,1,11,0.24
2013-4-16,89.1,79.9,72.5,73.9,68.2,63.8,90,69,48,30.03,29.93,14,2,14,0.20
2013-4-17,88.0,79.5,73.8,68.2,64.1,60.4,78,61,43,30.02,29.93,12,2,12,0.00
2013-4-18,90.9,81.6,74.1,71.6,65.5,61.1,75,59,41,29.97,29.89,13,2,13,0.00
2013-4-19,92.1,83.4,77.2,69.0,66.6,61.6,71,58,40,29.96,29.87,16,3,16,0.00
2013-4-20,95.5,81.3,74.8,74.9,67.8,56.3,83,66,33,29.99,29.84,18,1,18,0.10
2013-4-21,90.0,79.1,72.9,71.5,67.2,62.3,86,68,44,30.00,29.89,13,2,13,0.08
2013-4-22,91.6,75.8,70.0,70.1,65.8,61.3,85,73,39,29.96,29.83,17,1,17,0.80
2013-4-23,84.7,75.9,68.2,72.6,61.6,55.4,91,64,42,30.00,29.86,17,3,17,0.02
2013-4-24,87.8,77.9,68.2,64.3,57.7,55.1,75,51,36,30.04,29.94,13,1,13,0.00
2013-4-25,85.3,77.4,69.6,85.1,56.7,49.0,100,50,36,30.11,29.99,14,1,14,0.00
2013-4-26,84.6,76.4,66.6,63.3,58.0,55.6,76,54,40,30.13,30.02,16,2,16,0.00
2013-4-27,85.5,77.6,70.7,62.5,58.1,53.3,65,52,36,30.12,29.99,15,3,15,0.00
2013-4-28,86.9,78.6,72.7,62.0,57.9,53.6,65,50,37,30.03,29.90,15,3,15,0.00
2013-4-29,88.0,78.8,73.2,68.9,62.9,56.5,71,59,44,29.94,29.85,16,2,16,0.00
2013-4-30,90.0,78.5,72.5,71.2,65.8,60.4,80,66,43,29.91,29.83,12,0,12,0.04
2013-5-1,89.1,75.6,70.7,75.5,66.0,62.0,85,73,47,29.90,29.82,12,0,12,0.16
2013-5-2,81.9,73.4,70.0,71.9,67.3,62.9,91,82,66,29.85,29.69,18,1,18,0.20
2013-5-3,93.4,77.8,69.1,77.9,65.1,58.2,89,68,34,29.73,29.60,12,1,12,0.33
2013-5-4,91.6,79.5,69.3,80.8,62.5,55.4,88,59,34,29.72,29.60,14,1,14,0.26
2013-5-5,84.0,75.6,68.5,66.0,57.3,46.0,81,56,30,29.85,29.68,12,2,12,0.00
2013-5-6,90.3,75.9,60.3,73.4,54.0,47.3,76,49,27,29.93,29.83,12,0,12,0.00
2013-5-7,89.2,77.0,64.8,60.9,54.0,47.9,78,48,26,29.98,29.88,14,1,14,0.00
2013-5-8,91.0,78.5,64.2,62.5,54.2,47.0,78,46,23,30.05,29.96,10,0,10,0.00
2013-5-9,92.5,79.8,67.1,67.9,61.4,51.5,75,55,36,30.05,29.97,12,1,12,0.00
2013-5-10,92.7,83.6,73.8,75.9,66.4,61.8,75,58,37,30.04,29.93,13,2,13,0.00
2013-5-11,93.4,82.1,74.1,76.4,67.7,63.0,83,63,42,29.98,29.89,12,1,12,0.45
2013-5-12,96.3,81.7,73.0,76.8,67.3,61.8,86,64,35,29.98,29.86,12,0,12,0.51
2013-5-13,91.8,80.8,71.8,74.6,64.8,57.2,86,61,39,30.00,29.90,11,1,11,0.29
2013-5-14,85.5,77.2,70.5,63.4,55.1,47.6,73,48,34,30.09,29.97,16,2,16,0.00
2013-5-15,85.8,76.5,67.1,70.7,55.0,49.7,72,49,31,30.10,30.00,14,2,14,0.00
2013-5-16,87.6,78.0,66.6,63.4,55.7,52.4,72,47,33,30.03,29.95,12,2,12,0.00
2013-5-17,91.8,80.4,70.3,70.6,62.9,57.7,75,57,36,30.00,29.92,16,1,16,0.00
2013-5-18,93.0,82.2,74.1,72.4,66.3,63.8,79,59,43,30.01,29.93,12,2,12,0.00
2013-5-19,90.9,81.9,72.3,72.1,63.8,57.7,81,56,36,30.01,29.91,12,2,12,0.00
2013-5-20,83.1,78.1,75.2,71.8,67.6,63.0,78,70,63,29.99,29.90,10,1,10,0.45
2013-5-21,86.9,80.6,76.6,67.6,65.8,64.0,71,61,49,29.89,29.84,12,2,12,0.57
2013-5-22,92.8,78.7,74.1,74.2,68.5,62.3,83,72,44,29.88,29.80,114,0,114,0.00
2013-5-23,94.3,84.2,73.4,78.0,67.2,57.5,88,60,31,29.92,29.82,14,1,14,0.00
2013-5-24,96.4,85.2,76.3,73.8,67.5,58.7,82,58,30,29.97,29.85,11,1,11,0.00
2013-5-25,88.0,82.0,75.9,70.6,62.9,0.0,79,54,37,30.07,29.95,19,4,19,0.00
2013-5-26,91.4,80.6,71.4,63.4,58.6,55.5,66,48,34,30.08,30.01,16,3,16,0.00
2013-5-27,87.1,80.4,74.8,69.4,64.8,58.1,79,60,47,30.06,29.97,17,4,17,0.04
2013-5-28,86.7,79.9,75.6,70.2,68.0,65.8,81,67,53,30.02,29.95,114,4,114,0.16
2013-5-29,83.7,76.9,72.5,71.8,68.0,62.4,87,74,59,30.00,29.93,21,3,21,0.53
2013-5-30,86.2,79.8,73.2,72.4,67.9,64.5,84,67,55,29.98,29.91,21,4,21,0.18
2013-5-31,88.5,81.2,75.7,72.7,69.4,66.4,82,68,51,29.96,29.90,16,3,16,0.08
2013-6-1,89.1,78.8,74.8,76.5,71.5,0.0,86,79,56,29.94,29.86,10,0,10,0.18
2013-6-2,96.6,81.5,72.9,81.5,70.0,66.1,90,70,41,29.92,29.83,13,0,13,0.12
2013-6-3,93.4,82.8,74.3,74.4,69.6,63.8,85,66,41,29.95,29.82,9,0,9,0.12
2013-6-4,90.5,81.4,75.0,73.5,70.2,64.5,83,70,43,29.96,29.87,8,0,8,0.06
2013-6-5,86.9,82.2,79.0,73.6,71.8,69.0,80,71,60,29.93,29.80,11,1,11,0.04
2013-6-6,93.0,82.4,77.4,77.1,71.7,66.5,85,71,48,29.83,29.69,18,2,18,0.67
2013-6-7,92.7,80.2,75.4,75.7,70.3,66.1,86,73,48,29.92,29.75,12,0,12,0.41
2013-6-8,93.9,82.3,74.8,76.0,71.5,68.1,89,72,48,30.01,29.87,12,0,12,0.08
2013-6-9,92.1,85.0,79.5,74.2,69.5,66.4,74,61,46,30.02,29.94,16,2,19,0.00
2013-6-10,92.5,85.5,79.9,73.0,70.5,67.7,74,62,47,30.00,29.92,114,1,114,0.00
2013-6-11,94.3,85.2,80.1,77.0,71.8,65.9,80,65,40,30.01,29.91,12,0,114,0.08
2013-6-12,95.2,82.5,77.4,88.0,71.5,66.4,80,70,42,29.99,29.92,7,0,7,0.08
2013-6-13,95.4,82.6,75.4,84.4,69.2,63.4,86,66,39,29.97,29.85,6,0,6,0.08
2013-6-14,99.7,84.6,74.7,75.7,67.6,62.5,83,59,33,29.89,29.80,11,0,11,0.26
2013-6-15,98.1,85.2,75.7,77.1,68.6,60.9,84,60,32,29.97,29.84,8,0,8,0.06
2013-6-16,94.6,85.1,76.5,75.9,69.3,64.9,82,61,39,30.00,29.92,10,1,10,0.02
2013-6-17,101.5,87.9,78.4,76.1,69.1,65.3,77,55,36,29.99,29.92,13,1,13,0.00
2013-6-18,101.1,88.2,79.3,76.7,69.1,63.5,78,55,35,29.99,29.89,114,1,114,0.00
2013-6-19,96.8,87.9,79.7,76.4,69.3,63.7,78,56,36,29.96,29.89,12,1,12,0.00
2013-6-20,94.6,81.7,78.8,99.9,85.5,59.8,100,82,40,30.01,29.93,114,65,114,0.18
2013-6-21,96.4,86.3,77.7,78.4,68.0,61.8,81,57,36,30.03,29.94,11,1,11,0.04
2013-6-22,95.5,86.6,77.9,74.4,67.6,63.3,75,55,39,30.01,29.95,12,2,12,0.00
2013-6-23,96.3,86.2,79.0,79.6,67.4,62.2,69,55,41,30.04,29.96,14,2,14,0.20
2013-6-24,93.2,85.3,79.0,76.3,68.6,64.8,74,58,43,30.08,29.99,14,2,14,0.06
2013-6-25,94.5,85.8,79.2,74.6,69.5,65.5,76,59,44,30.04,29.95,14,1,14,0.06
2013-6-26,94.5,86.3,79.3,79.8,69.7,63.9,73,59,40,29.99,29.92,11,1,11,0.02
2013-6-27,94.5,85.0,79.2,82.9,69.8,64.6,100,61,45,29.97,29.87,7,0,7,0.02
2013-6-28,102.6,85.7,76.1,93.6,69.9,61.2,80,62,36,29.92,29.77,13,0,13,0.69
2013-6-29,97.0,83.9,76.1,82.5,70.8,60.9,84,67,35,29.83,29.75,11,0,13,0.80
2013-6-30,96.4,84.4,77.4,77.6,69.3,58.5,81,62,41,29.86,29.76,13,0,13,0.26
2013-7-1,93.9,83.8,78.3,75.7,70.4,65.5,78,65,44,29.95,29.83,18,1,18,0.06
2013-7-2,91.6,84.0,78.3,75.6,71.2,67.7,80,66,50,30.02,29.88,12,1,12,0.02
2013-7-3,91.8,84.2,79.0,77.0,70.5,65.7,78,64,49,30.04,29.95,18,2,22,0.02
2013-7-4,93.2,85.3,77.2,73.2,69.6,65.5,82,61,45,30.08,29.97,18,3,18,0.22
2013-7-5,89.4,83.1,77.5,77.5,71.2,68.5,82,68,56,30.04,29.96,18,2,18,0.33
2013-7-6,92.3,84.7,79.5,73.7,69.3,65.3,73,61,43,30.03,29.94,14,2,17,0.02
2013-7-7,92.7,85.1,78.3,79.8,69.1,65.1,77,60,45,30.01,29.93,17,2,17,0.02
2013-7-8,94.1,85.5,77.7,77.1,67.7,62.5,72,56,41,30.05,29.98,13,1,13,0.00
2013-7-9,92.3,83.9,77.2,80.4,66.7,60.5,78,58,41,30.05,29.96,13,1,13,0.00
2013-7-10,89.4,80.8,75.0,72.9,69.8,66.5,80,70,51,30.00,29.91,8,0,11,0.26
2013-7-11,100.0,85.0,75.9,79.2,69.1,60.7,86,61,41,29.95,29.85,9,1,12,0.20
2013-7-12,96.3,84.5,77.2,77.8,68.9,62.9,81,61,37,29.89,29.81,9,0,9,0.02
2013-7-13,92.1,80.2,76.6,99.9,82.6,65.5,100,81,45,29.94,29.83,114,51,114,0.31
2013-7-14,93.6,81.7,74.1,99.9,80.8,65.4,100,78,41,30.01,29.89,114,45,114,0.77
2013-7-15,92.7,82.8,73.9,77.2,68.1,63.3,86,64,40,30.00,29.92,11,1,11,0.77
2013-7-16,87.4,79.8,75.2,74.4,67.7,64.8,82,67,49,30.06,29.96,18,1,18,0.10
2013-7-17,82.4,76.1,73.2,74.1,69.7,48.9,88,81,68,30.07,29.95,19,0,19,0.43
2013-7-18,90.3,78.5,73.6,82.2,70.4,61.9,90,77,57,30.04,29.96,15,0,15,0.20
2013-7-19,92.7,83.5,74.1,84.0,71.4,66.9,90,69,46,30.04,29.95,13,1,13,0.04
2013-7-20,92.7,84.1,77.9,85.3,72.4,65.5,81,69,44,30.03,29.94,11,0,11,0.02
2013-7-21,95.0,83.9,77.4,76.7,71.6,65.4,83,68,47,30.06,29.96,9,0,9,0.02
2013-7-22,95.9,86.9,78.6,78.2,70.0,65.3,82,59,39,30.06,29.97,11,1,11,0.00
2013-7-23,99.3,87.8,77.9,77.9,68.4,59.0,81,55,28,30.02,29.88,9,0,9,0.00
2013-7-24,98.1,87.5,79.2,76.3,68.2,59.5,79,55,31,29.94,29.82,12,0,12,0.04
2013-7-25,99.0,88.4,77.0,74.7,67.1,63.4,78,51,34,29.93,29.83,7,1,11,0.00
2013-7-26,98.6,86.1,80.1,74.2,69.8,63.5,77,60,35,29.95,29.84,14,1,14,0.71
2013-7-27,93.7,83.0,78.6,79.4,71.6,59.2,84,69,46,29.92,29.84,12,0,12,0.96
2013-7-28,93.6,83.8,77.5,81.8,71.3,62.2,85,67,49,29.99,29.86,9,0,9,0.06
2013-7-29,93.7,84.4,77.2,80.6,71.4,67.9,83,67,44,30.04,29.93,11,1,12,0.00
2013-7-30,96.4,86.7,77.4,80.2,71.4,67.4,79,62,45,30.07,29.99,12,1,12,0.00
2013-7-31,94.3,86.8,79.9,81.6,70.2,66.5,81,59,44,30.02,29.91,14,2,14,0.02
2013-8-1,94.1,86.2,79.9,81.1,68.4,64.3,71,56,42,29.96,29.85,12,2,14,0.02
2013-8-2,95.5,83.9,78.1,74.8,69.1,62.4,77,63,37,29.97,29.83,14,0,14,0.37
2013-8-3,90.5,80.0,77.2,99.9,82.2,63.2,100,83,50,30.05,29.93,114,43,114,0.37
2013-8-4,77.2,77.2,77.2,99.9,99.9,99.9,100,100,100,30.03,29.89,114,114,114,0.29
2013-8-5,85.6,77.6,77.2,99.9,98.2,66.4,100,98,54,29.95,29.86,114,108,114,0.00
2013-8-6,94.1,83.7,79.0,70.6,67.8,65.9,75,59,43,29.88,29.79,10,0,10,0.00
2013-8-7,96.8,86.3,77.4,79.2,70.2,65.9,84,61,41,29.90,29.81,14,1,14,0.00
2013-8-8,94.6,87.0,80.8,77.2,69.8,63.8,73,58,42,29.93,29.83,17,2,17,0.06
2013-8-9,94.5,85.2,80.8,72.9,68.4,64.6,70,58,43,29.97,29.86,16,2,16,0.02
2013-8-10,95.2,86.7,80.4,73.0,69.8,66.2,74,58,41,30.03,29.94,13,2,13,0.02
2013-8-11,94.5,87.3,81.3,74.2,70.4,66.1,73,58,44,30.04,29.97,12,2,12,0.00
2013-8-12,93.0,85.2,77.7,76.5,69.7,65.3,79,61,43,30.02,29.92,16,2,114,0.08
2013-8-13,95.7,87.4,79.5,78.0,69.2,63.7,80,57,37,29.96,29.87,12,1,12,0.08
2013-8-14,95.5,86.8,77.9,76.9,69.0,63.6,80,57,39,29.94,29.84,10,1,12,0.00
2013-8-15,90.9,83.4,77.4,75.8,71.6,-29.7,81,68,53,29.97,29.87,11,0,11,0.14
2013-8-16,95.0,87.0,79.5,78.4,71.8,67.2,82,62,43,29.97,29.88,11,1,11,0.14
2013-8-17,94.6,88.0,82.0,75.4,71.8,67.8,74,60,46,29.99,29.91,14,2,14,0.00
2013-8-18,92.8,86.9,82.0,74.0,71.4,67.6,73,61,47,29.99,29.90,16,2,16,0.00
2013-8-19,94.6,86.8,79.9,74.8,70.7,65.7,79,60,43,29.98,29.87,14,2,14,0.00
2013-8-20,93.7,86.8,80.8,74.7,69.9,66.4,72,58,43,29.98,29.89,13,2,16,0.00
2013-8-21,92.5,84.9,80.2,75.4,72.3,69.4,79,66,48,29.99,29.90,17,2,17,0.14
2013-8-22,93.9,85.6,77.2,77.0,71.5,66.9,83,64,46,30.00,29.86,15,2,15,0.14
2013-8-23,95.0,85.8,79.0,79.9,70.9,65.9,77,62,41,29.93,29.85,12,1,12,0.02
2013-8-24,95.0,85.4,78.4,80.7,70.5,63.9,84,63,43,30.03,29.88,12,1,12,0.02
2013-8-25,89.2,82.0,77.9,75.0,70.8,66.6,83,70,52,30.07,29.94,10,1,10,0.08
2013-8-26,91.9,83.2,77.7,78.0,69.3,65.3,79,64,43,30.03,29.92,13,1,13,0.02
2013-8-27,91.6,81.4,74.8,78.1,68.9,60.6,83,67,41,29.96,29.88,10,0,10,0.04
2013-8-28,92.1,81.6,75.6,76.8,69.5,64.8,82,68,46,29.96,29.86,12,1,12,0.29
2013-8-29,93.9,83.8,75.4,72.3,69.3,64.9,82,63,41,29.94,29.84,11,1,11,0.26
2013-8-30,95.5,85.7,76.6,75.3,68.3,61.8,82,58,36,29.92,29.81,11,1,11,0.00
2013-8-31,94.6,82.1,76.3,74.8,69.4,63.6,82,67,39,29.90,29.82,17,0,17,0.31
2013-9-1,92.1,80.8,74.1,77.1,71.6,64.2,87,75,47,29.92,29.84,7,0,7,0.04
2013-9-2,95.0,80.4,75.4,78.7,71.1,63.7,88,75,41,29.94,29.85,16,0,16,0.77
2013-9-3,91.6,81.5,73.2,78.4,70.9,62.1,88,72,50,29.94,29.84,0,0,0,0.12
2013-9-4,88.9,82.7,78.3,78.8,72.8,71.3,84,73,58,29.98,29.86,0,0,0,0.12
2013-9-5,94.3,84.6,79.2,77.2,72.0,65.6,83,67,45,29.98,29.90,0,0,0,0.00
2013-9-6,95.0,85.6,78.1,77.7,71.0,65.2,83,64,40,29.95,29.83,10,0,10,0.00
2013-9-7,90.3,80.7,75.4,78.4,70.6,63.7,82,72,49,29.90,29.81,7,0,7,0.04
2013-9-8,93.9,80.0,73.8,74.4,70.1,65.2,87,73,40,29.86,29.77,9,0,9,0.41
2013-9-9,91.6,82.7,74.3,73.4,69.3,65.4,86,66,45,29.91,29.81,11,1,11,0.41
2013-9-10,92.3,83.1,77.0,76.1,70.1,65.3,84,66,46,29.95,29.86,14,1,17,0.00
2013-9-11,85.5,80.6,75.9,75.5,70.6,67.3,82,72,61,29.97,29.87,15,1,17,0.14
2013-9-12,88.0,81.6,76.6,75.3,71.3,68.6,85,72,57,29.93,29.80,0,0,2,0.14
2013-9-13,95.7,84.5,75.4,75.5,68.9,62.3,85,62,37,29.82,29.71,0,0,0,0.00
2013-9-14,95.4,85.6,76.6,75.4,68.6,61.6,82,59,35,29.89,29.73,0,0,0,0.00
2013-9-17,82.0,80.7,79.7,72.4,70.7,68.9,74,72,66,29.89,29.82,0,0,0,0.33
2013-9-18,90.3,81.1,75.7,73.8,70.6,65.8,85,71,48,29.93,29.82,0,0,0,0.41
2013-9-19,91.6,81.3,74.8,76.7,70.3,65.9,87,71,47,29.92,29.83,0,0,0,0.16
2013-9-20,88.9,82.5,74.1,69.8,64.9,58.6,80,57,38,29.91,29.81,0,0,0,0.00
2013-9-21,84.6,83.9,79.2,69.5,65.9,65.0,70,55,52,29.81,29.70,0,0,0,0.00
2013-9-22,95.9,85.5,76.6,74.9,69.3,62.3,82,61,35,29.78,29.67,0,0,0,0.00
2013-9-23,91.8,82.8,78.4,75.9,72.1,66.1,82,71,49,29.89,29.77,13,0,13,0.33
2013-9-24,96.6,84.1,76.1,79.6,70.4,0.0,86,66,39,29.88,29.78,11,0,11,0.04
2013-9-25,91.6,82.2,75.9,75.4,69.7,65.8,78,67,48,29.83,29.72,9,0,9,0.12
2013-9-26,92.8,82.0,76.6,77.9,72.7,69.0,85,74,50,29.79,29.71,14,0,14,0.29
2013-9-27,91.9,81.8,75.0,73.0,68.8,61.5,88,67,38,29.83,29.73,7,0,7,0.08
2013-9-28,90.3,81.2,74.7,72.4,67.8,63.7,84,65,43,29.87,29.78,13,1,13,0.16
2013-9-29,90.9,81.5,73.8,72.8,66.3,59.6,86,62,38,29.88,29.78,10,0,10,0.20
2013-9-30,91.9,82.1,73.4,71.4,66.0,61.9,81,60,39,29.91,29.81,9,1,9,0.00
2013-10-1,90.5,83.3,75.9,71.4,66.4,62.5,76,58,42,29.94,29.86,14,2,14,0.00
2013-10-2,87.3,82.6,79.9,69.7,67.9,65.5,68,61,50,29.95,29.87,114,2,114,0.00
2013-10-3,90.9,82.9,77.4,72.0,68.6,65.4,78,63,47,29.96,29.86,10,1,10,0.00
2013-10-4,91.0,81.7,74.8,73.0,66.6,62.1,82,62,42,29.97,29.89,114,1,114,0.00
2013-10-5,91.6,81.7,72.7,71.1,65.2,57.7,84,60,35,29.95,29.84,10,1,10,0.00
2013-10-6,93.4,83.3,75.2,73.5,66.0,58.2,82,58,32,29.88,29.77,8,0,8,0.00
2013-10-7,95.7,81.2,74.8,72.4,67.4,60.7,79,65,36,29.81,29.72,17,0,17,0.04
2013-10-8,93.7,83.0,75.9,78.0,69.0,64.7,87,65,41,29.85,29.75,7,0,7,0.06
2013-10-9,89.4,79.7,73.0,71.6,67.9,-27.6,79,68,49,29.90,29.81,10,0,10,0.02
2013-10-10,89.2,80.2,72.7,70.2,66.4,62.2,85,64,44,29.92,29.84,12,1,12,0.00
2013-10-11,89.1,78.9,70.3,70.2,62.9,58.0,84,60,38,29.93,29.85,12,1,12,0.00
2013-10-12,88.7,78.4,69.3,73.2,62.3,57.3,82,60,38,29.94,29.86,10,0,10,0.00
2013-10-13,87.4,77.9,72.3,72.7,61.7,55.0,84,60,34,29.95,29.87,12,1,12,0.00
2013-10-14,88.9,78.8,70.9,72.2,63.0,58.5,83,60,37,29.93,29.81,12,1,12,0.00
2013-10-15,88.5,78.9,71.4,71.9,64.9,60.7,87,64,42,29.87,29.77,11,1,11,0.00
2013-10-16,89.1,78.2,71.2,74.3,64.6,59.8,100,65,41,29.86,29.79,10,0,10,0.00
2013-10-17,91.2,80.0,71.1,71.1,65.6,61.7,85,64,40,29.88,29.80,11,0,11,0.00
2013-10-18,90.3,80.9,72.3,70.9,66.4,63.5,82,63,43,29.90,29.81,10,0,10,0.00
2013-10-19,92.7,82.6,73.6,71.9,67.0,64.5,82,61,43,29.88,29.78,8,1,11,0.00
2013-10-20,94.1,83.1,76.8,75.2,69.7,63.7,81,65,37,29.88,29.78,10,0,10,0.00
2013-10-21,93.4,83.8,76.5,75.0,69.8,64.8,82,64,44,29.92,29.81,9,0,9,0.00
2013-10-22,93.9,84.1,75.6,77.2,70.2,64.8,83,65,42,29.88,29.74,9,0,9,0.06
2013-10-23,90.5,82.1,76.8,74.2,68.0,62.6,80,63,44,29.87,29.73,11,0,11,0.06
2013-10-24,81.3,76.8,72.7,63.8,59.6,54.9,67,56,47,30.00,29.84,11,0,11,0.00
2013-10-25,84.6,76.5,70.0,63.8,58.3,54.1,72,55,36,30.06,29.97,15,1,15,0.00
2013-10-26,85.8,75.3,68.2,67.7,59.0,54.4,77,59,37,30.06,29.96,12,1,12,0.00
2013-10-27,86.9,74.8,66.4,61.1,57.5,54.2,73,56,35,30.01,29.93,12,1,12,0.00
2013-10-28,86.9,75.9,66.4,65.8,59.1,50.2,84,59,31,30.05,29.96,11,1,11,0.00
2013-10-29,87.4,77.0,67.5,66.7,61.3,58.0,84,60,40,30.08,29.99,15,2,15,0.00
2013-10-30,86.5,79.3,71.1,64.0,60.3,56.9,73,53,40,30.10,29.99,15,2,15,0.00
2013-10-31,88.0,80.4,73.6,68.0,64.3,60.6,73,59,43,30.02,29.90,13,1,13,0.00
2013-11-1,91.0,81.6,74.1,74.7,67.1,62.7,78,63,42,29.93,29.80,114,1,114,0.02
2013-11-2,92.1,80.5,72.3,72.0,64.8,57.4,85,62,33,29.85,29.71,9,0,9,0.02
2013-11-3,82.8,74.5,69.3,61.6,57.1,51.9,71,56,40,29.94,29.80,14,1,14,0.00
2013-11-4,83.3,76.6,73.8,65.5,57.6,48.8,68,52,34,29.99,29.91,21,5,21,0.00
2013-11-5,83.7,79.1,75.4,68.4,62.5,58.7,74,57,46,30.00,29.92,20,6,20,0.00
2013-11-6,86.2,79.4,72.1,65.1,63.2,60.3,76,58,44,29.97,29.90,13,3,19,0.00
2013-11-7,89.4,77.8,70.2,69.7,64.9,58.7,87,66,38,29.93,29.82,10,0,10,0.00
2013-11-8,86.5,77.2,71.8,69.9,65.9,59.6,84,69,44,29.95,29.85,18,2,18,0.00
2013-11-9,80.6,76.3,73.6,70.9,68.2,65.0,88,76,68,30.03,29.92,18,3,18,0.00
2013-11-10,84.9,79.0,74.1,67.4,65.1,61.9,71,63,51,30.03,29.95,14,3,14,0.00
2013-11-11,86.5,77.2,70.7,67.9,63.4,60.0,82,64,46,30.03,29.95,15,2,15,0.00
2013-11-12,87.1,77.4,69.4,72.4,62.6,58.2,84,62,41,29.99,29.88,10,1,10,0.00
2013-11-13,77.4,72.4,69.3,62.9,59.0,50.5,78,63,49,30.12,29.90,25,3,25,0.04
2013-11-14,77.2,72.7,69.3,56.8,51.6,49.2,57,48,39,30.15,30.04,18,5,18,0.02
2013-11-15,83.8,77.3,72.5,65.1,60.0,54.4,70,56,46,30.05,29.94,12,4,14,0.00
2013-11-16,82.0,78.0,75.6,67.4,63.7,58.8,75,62,49,30.01,29.92,14,2,14,0.04
2013-11-17,87.6,79.6,73.4,68.1,65.2,62.0,75,62,45,29.99,29.91,13,2,13,0.02
2013-11-18,88.5,78.0,71.2,75.1,66.4,60.9,86,69,47,29.94,29.83,8,0,8,0.04
2013-11-19,88.0,77.7,72.3,72.8,66.8,62.4,82,70,44,29.86,29.76,14,0,14,0.02
2013-11-20,87.1,77.7,70.7,76.1,67.9,63.6,87,73,55,29.97,29.83,7,0,7,0.00
2013-11-21,86.2,77.5,73.0,76.2,68.4,63.6,84,74,57,30.05,29.95,15,1,15,0.12
2013-11-22,83.7,77.9,73.8,70.0,65.5,62.1,82,66,54,30.06,29.97,12,4,17,0.20
2013-11-23,85.5,77.9,73.0,67.6,65.4,62.9,76,66,50,29.99,29.88,13,2,13,0.00
2013-11-24,83.7,74.6,68.7,70.9,63.2,57.4,86,69,45,30.05,29.89,20,2,20,0.02
2013-11-25,77.4,73.7,72.0,66.9,59.6,54.4,81,62,52,30.11,29.96,18,6,22,0.02
2013-11-26,86.9,78.3,72.5,71.1,68.4,65.6,83,72,54,29.96,29.74,17,4,17,0.06
2013-11-27,81.0,73.1,59.9,71.6,60.5,48.1,87,67,36,30.03,29.70,15,2,15,0.12
2013-11-28,73.8,62.8,49.6,54.7,48.4,43.1,78,61,42,30.16,30.03,12,2,16,0.00
2013-11-29,77.7,69.4,59.9,62.7,54.2,51.4,82,61,41,30.18,30.09,17,3,20,0.00
2013-11-30,77.9,69.0,61.7,67.6,59.3,53.7,86,72,57,30.12,30.01,20,1,20,0.04
2013-12-1,76.1,68.8,62.1,70.0,63.3,55.7,90,83,71,30.01,29.86,6,0,6,0.04
2013-12-2,76.6,68.9,62.2,66.7,61.4,53.3,96,79,46,29.86,29.74,9,0,9,0.00
2013-12-3,81.5,70.7,60.6,65.1,58.6,54.2,89,68,41,29.92,29.81,6,0,6,0.00
2013-12-4,82.6,73.0,65.1,68.3,61.4,56.6,86,69,45,30.01,29.90,9,0,9,0.00
2013-12-5,86.2,74.7,64.9,71.8,63.8,60.3,87,70,47,30.08,29.99,10,2,14,0.00
2013-12-6,86.2,77.5,70.0,68.9,64.1,59.9,78,65,45,30.10,30.00,14,2,14,0.00
2013-12-7,86.7,75.2,66.7,70.4,63.0,57.8,86,68,43,30.13,30.04,9,1,9,0.00
2013-12-8,86.4,77.4,70.2,71.3,64.6,58.9,83,66,43,30.12,30.03,15,3,15,0.02
2013-12-9,86.7,78.2,72.1,76.7,62.6,56.5,100,60,39,30.11,30.02,11,2,14,0.00
2013-12-10,89.2,77.9,70.5,70.0,66.0,63.7,85,68,45,30.07,29.99,10,0,10,0.00
2013-12-11,86.7,76.6,70.5,74.9,66.4,62.3,89,72,50,30.11,30.03,10,1,10,0.00
2013-12-12,82.2,72.0,64.9,69.5,61.9,53.1,90,72,52,30.14,30.04,12,1,12,0.00
2013-12-13,79.5,73.2,64.8,64.7,58.4,52.4,76,60,47,30.11,30.00,18,4,18,0.00
2013-12-14,85.3,77.6,73.0,69.4,65.3,63.7,77,66,51,30.02,29.90,18,4,18,0.00
2013-12-15,88.0,77.4,72.0,74.6,67.3,64.2,88,72,51,29.97,29.84,11,1,11,0.00
2013-12-16,74.8,69.1,62.8,65.8,56.7,53.5,81,65,51,30.07,29.94,10,0,10,0.00
2013-12-17,79.0,67.4,59.0,60.6,54.7,50.9,87,66,41,30.09,30.00,14,2,14,0.00
2013-12-18,77.5,66.5,59.7,65.9,52.9,48.6,88,64,37,30.15,30.05,9,1,12,0.00
2013-12-19,80.1,68.8,57.4,60.5,53.8,51.5,85,61,40,30.15,30.06,11,2,14,0.00
2013-12-20,84.6,75.6,67.1,66.1,61.9,57.0,75,63,47,30.10,30.01,16,3,16,0.00
2013-12-21,86.5,78.5,74.7,68.8,66.2,63.7,77,67,49,30.06,29.97,16,4,16,0.00
2013-12-22,88.0,79.8,75.9,69.2,66.6,63.5,75,65,45,30.07,29.99,18,4,18,0.00
2013-12-23,87.3,78.9,71.8,71.8,66.8,62.5,80,68,49,30.09,30.02,13,2,13,0.00
2013-12-24,85.6,72.6,67.6,70.7,62.6,56.1,87,72,49,30.09,29.99,15,1,15,0.00
2013-12-25,76.8,73.2,69.8,64.8,60.9,58.6,79,66,54,30.09,30.01,19,5,19,0.00
2013-12-26,79.5,75.2,72.0,66.6,64.3,62.0,78,69,59,30.08,29.98,14,3,14,0.02
2013-12-27,82.2,74.7,68.7,72.8,65.3,62.7,89,73,56,30.11,30.00,14,3,14,0.04
2013-12-28,82.6,77.1,74.1,69.2,65.7,63.2,77,68,58,30.09,29.93,15,5,15,0.02
2013-12-29,83.7,78.1,75.4,71.0,68.5,67.3,81,73,60,29.95,29.84,16,2,16,0.00
2013-12-30,82.8,74.5,70.0,70.0,65.9,59.6,87,75,54,30.06,29.89,8,1,8,0.02
2013-12-31,80.6,73.3,68.2,63.7,58.9,55.8,78,62,45,30.14,30.01,17,4,17,0.02
2014-1-1,83.3,75.8,72.5,69.9,65.5,58.1,84,71,58,30.10,29.95,14,3,14,0.18
2014-1-2,88.3,76.8,68.4,74.1,64.1,58.9,89,68,39,29.95,29.78,13,1,13,0.04